sensor_id;sensor_type;location;lat;lon;timestamp;temperature;humidity
5196;DHT22;2617;51.006;12.436;2023-06-14T00:00:45;11.40;99.90
5196;DHT22;2617;51.006;12.436;2023-06-14T00:05:48;11.30;99.90
5196;DHT22;2617;51.006;12.436;2023-06-14T00:10:51;11.20;99.90
5196;DHT22;2617;51.006;12.436;2023-06-14T00:15:54;11.20;99.90
5196;DHT22;2617;51.006;12.436;2023-06-14T00:20:57;11.10;99.90
5196;DHT22;2617;51.006;12.436;2023-06-14T00:25:59;11.00;99.90
5196;DHT22;2617;51.006;12.436;2023-06-14T00:31:02;11.00;99.90
5196;DHT22;2617;51.006;12.436;2023-06-14T00:36:04;10.90;99.90
5196;DHT22;2617;51.006;12.436;2023-06-14T00:41:07;10.90;99.90
5196;DHT22;2617;51.006;12.436;2023-06-14T00:46:10;10.70;99.90
5196;DHT22;2617;51.006;12.436;2023-06-14T00:51:13;10.70;99.90
5196;DHT22;2617;51.006;12.436;2023-06-14T00:56:16;10.60;99.90
5196;DHT22;2617;51.006;12.436;2023-06-14T01:01:19;10.60;99.90
5196;DHT22;2617;51.006;12.436;2023-06-14T01:06:41;10.60;99.90
5196;DHT22;2617;51.006;12.436;2023-06-14T01:11:58;10.50;99.90
5196;DHT22;2617;51.006;12.436;2023-06-14T01:17:01;10.50;99.90
5196;DHT22;2617;51.006;12.436;2023-06-14T01:22:04;10.50;99.90
5196;DHT22;2617;51.006;12.436;2023-06-14T01:27:06;10.50;99.90
5196;DHT22;2617;51.006;12.436;2023-06-14T01:32:09;10.40;99.90
5196;DHT22;2617;51.006;12.436;2023-06-14T01:37:12;10.30;99.90
5196;DHT22;2617;51.006;12.436;2023-06-14T01:42:16;10.20;99.90
5196;DHT22;2617;51.006;12.436;2023-06-14T01:47:18;10.20;99.90
5196;DHT22;2617;51.006;12.436;2023-06-14T01:52:21;10.20;99.90
5196;DHT22;2617;51.006;12.436;2023-06-14T01:57:23;10.20;99.90
5196;DHT22;2617;51.006;12.436;2023-06-14T02:02:26;10.00;99.90
5196;DHT22;2617;51.006;12.436;2023-06-14T02:07:29;10.00;99.90
5196;DHT22;2617;51.006;12.436;2023-06-14T02:12:31;9.90;99.90
5196;DHT22;2617;51.006;12.436;2023-06-14T02:17:33;9.80;99.90
5196;DHT22;2617;51.006;12.436;2023-06-14T02:22:36;9.70;99.90
5196;DHT22;2617;51.006;12.436;2023-06-14T02:27:38;9.60;99.90
5196;DHT22;2617;51.006;12.436;2023-06-14T02:32:41;9.60;99.90
5196;DHT22;2617;51.006;12.436;2023-06-14T02:37:44;9.60;99.90
5196;DHT22;2617;51.006;12.436;2023-06-14T02:42:47;9.50;99.90
5196;DHT22;2617;51.006;12.436;2023-06-14T02:47:50;9.50;99.90
5196;DHT22;2617;51.006;12.436;2023-06-14T02:52:52;9.40;99.90
5196;DHT22;2617;51.006;12.436;2023-06-14T02:57:55;9.40;99.90
5196;DHT22;2617;51.006;12.436;2023-06-14T03:02:57;9.50;99.90
5196;DHT22;2617;51.006;12.436;2023-06-14T03:07:59;9.50;99.90
5196;DHT22;2617;51.006;12.436;2023-06-14T03:13:02;9.50;99.90
5196;DHT22;2617;51.006;12.436;2023-06-14T03:18:04;9.70;99.90
5196;DHT22;2617;51.006;12.436;2023-06-14T03:23:07;10.20;99.90
5196;DHT22;2617;51.006;12.436;2023-06-14T03:28:09;10.90;99.90
5196;DHT22;2617;51.006;12.436;2023-06-14T03:33:12;11.50;99.90
5196;DHT22;2617;51.006;12.436;2023-06-14T03:38:16;13.20;99.90
5196;DHT22;2617;51.006;12.436;2023-06-14T03:43:19;13.20;99.90
5196;DHT22;2617;51.006;12.436;2023-06-14T03:48:21;13.70;99.90
5196;DHT22;2617;51.006;12.436;2023-06-14T03:53:23;14.00;99.90
5196;DHT22;2617;51.006;12.436;2023-06-14T03:58:26;14.50;99.90
5196;DHT22;2617;51.006;12.436;2023-06-14T04:03:28;15.10;99.90
5196;DHT22;2617;51.006;12.436;2023-06-14T04:08:31;15.40;99.90
5196;DHT22;2617;51.006;12.436;2023-06-14T04:13:34;15.80;99.90
5196;DHT22;2617;51.006;12.436;2023-06-14T04:18:36;15.80;99.90
5196;DHT22;2617;51.006;12.436;2023-06-14T04:23:39;16.50;99.90
5196;DHT22;2617;51.006;12.436;2023-06-14T04:28:42;17.80;97.20
5196;DHT22;2617;51.006;12.436;2023-06-14T04:33:45;17.80;97.00
5196;DHT22;2617;51.006;12.436;2023-06-14T04:38:47;17.60;97.20
5196;DHT22;2617;51.006;12.436;2023-06-14T04:43:50;17.50;98.00
5196;DHT22;2617;51.006;12.436;2023-06-14T04:48:53;17.40;97.90
5196;DHT22;2617;51.006;12.436;2023-06-14T04:53:56;17.20;99.00
5196;DHT22;2617;51.006;12.436;2023-06-14T04:58:58;17.60;98.20
5196;DHT22;2617;51.006;12.436;2023-06-14T05:04:00;17.10;98.60
5196;DHT22;2617;51.006;12.436;2023-06-14T05:09:02;16.40;99.90
5196;DHT22;2617;51.006;12.436;2023-06-14T05:14:05;16.10;99.90
5196;DHT22;2617;51.006;12.436;2023-06-14T05:19:07;15.70;99.90
5196;DHT22;2617;51.006;12.436;2023-06-14T05:24:10;15.70;99.90
5196;DHT22;2617;51.006;12.436;2023-06-14T05:29:13;15.30;99.90
5196;DHT22;2617;51.006;12.436;2023-06-14T05:34:17;14.90;99.90
5196;DHT22;2617;51.006;12.436;2023-06-14T05:39:20;14.80;99.90
5196;DHT22;2617;51.006;12.436;2023-06-14T05:44:22;14.30;99.90
5196;DHT22;2617;51.006;12.436;2023-06-14T05:49:25;13.80;99.90
5196;DHT22;2617;51.006;12.436;2023-06-14T05:54:27;13.70;99.90
5196;DHT22;2617;51.006;12.436;2023-06-14T05:59:29;13.70;99.90
5196;DHT22;2617;51.006;12.436;2023-06-14T06:04:32;13.60;99.90
5196;DHT22;2617;51.006;12.436;2023-06-14T06:09:34;13.60;99.90
5196;DHT22;2617;51.006;12.436;2023-06-14T06:14:37;13.70;99.90
5196;DHT22;2617;51.006;12.436;2023-06-14T06:19:39;13.70;99.90
5196;DHT22;2617;51.006;12.436;2023-06-14T06:24:42;13.80;99.90
5196;DHT22;2617;51.006;12.436;2023-06-14T06:29:44;13.90;99.90
5196;DHT22;2617;51.006;12.436;2023-06-14T06:34:48;14.00;99.90
5196;DHT22;2617;51.006;12.436;2023-06-14T06:39:51;14.60;99.90
5196;DHT22;2617;51.006;12.436;2023-06-14T06:44:53;14.50;99.90
5196;DHT22;2617;51.006;12.436;2023-06-14T06:49:56;14.70;99.90
5196;DHT22;2617;51.006;12.436;2023-06-14T06:54:59;15.40;99.90
5196;DHT22;2617;51.006;12.436;2023-06-14T07:00:01;15.30;99.90
5196;DHT22;2617;51.006;12.436;2023-06-14T07:05:05;15.60;99.90
5196;DHT22;2617;51.006;12.436;2023-06-14T07:10:08;16.00;99.90
5196;DHT22;2617;51.006;12.436;2023-06-14T07:15:11;16.00;99.90
5196;DHT22;2617;51.006;12.436;2023-06-14T07:20:14;16.00;99.90
5196;DHT22;2617;51.006;12.436;2023-06-14T07:25:17;16.30;99.90
5196;DHT22;2617;51.006;12.436;2023-06-14T07:30:20;16.30;99.90
5196;DHT22;2617;51.006;12.436;2023-06-14T07:35:22;16.60;99.90
5196;DHT22;2617;51.006;12.436;2023-06-14T07:40:25;16.60;99.90
5196;DHT22;2617;51.006;12.436;2023-06-14T07:45:27;16.50;99.90
5196;DHT22;2617;51.006;12.436;2023-06-14T07:50:30;16.60;99.90
5196;DHT22;2617;51.006;12.436;2023-06-14T07:55:32;17.00;99.90
5196;DHT22;2617;51.006;12.436;2023-06-14T08:00:35;17.10;99.90
5196;DHT22;2617;51.006;12.436;2023-06-14T08:05:37;17.10;99.90
5196;DHT22;2617;51.006;12.436;2023-06-14T08:10:39;17.60;98.90
5196;DHT22;2617;51.006;12.436;2023-06-14T08:15:42;18.10;98.50
5196;DHT22;2617;51.006;12.436;2023-06-14T08:20:44;18.40;96.70
5196;DHT22;2617;51.006;12.436;2023-06-14T08:25:47;18.20;96.50
5196;DHT22;2617;51.006;12.436;2023-06-14T08:30:50;18.50;96.40
5196;DHT22;2617;51.006;12.436;2023-06-14T08:35:53;18.50;96.40
5196;DHT22;2617;51.006;12.436;2023-06-14T08:40:57;18.20;94.30
5196;DHT22;2617;51.006;12.436;2023-06-14T08:46:00;18.10;94.30
5196;DHT22;2617;51.006;12.436;2023-06-14T08:51:02;18.90;92.80
5196;DHT22;2617;51.006;12.436;2023-06-14T08:56:05;18.90;92.80
5196;DHT22;2617;51.006;12.436;2023-06-14T09:01:07;19.10;92.50
5196;DHT22;2617;51.006;12.436;2023-06-14T09:06:10;18.80;91.60
5196;DHT22;2617;51.006;12.436;2023-06-14T09:11:13;18.90;90.30
5196;DHT22;2617;51.006;12.436;2023-06-14T09:16:15;18.90;90.30
5196;DHT22;2617;51.006;12.436;2023-06-14T09:21:18;18.80;89.60
5196;DHT22;2617;51.006;12.436;2023-06-14T09:26:20;19.00;90.40
5196;DHT22;2617;51.006;12.436;2023-06-14T09:31:23;19.30;90.70
5196;DHT22;2617;51.006;12.436;2023-06-14T09:36:25;19.30;90.40
5196;DHT22;2617;51.006;12.436;2023-06-14T09:41:31;19.60;87.80
5196;DHT22;2617;51.006;12.436;2023-06-14T09:46:36;19.50;87.60
5196;DHT22;2617;51.006;12.436;2023-06-14T09:51:42;19.70;88.50
5196;DHT22;2617;51.006;12.436;2023-06-14T09:56:46;19.90;87.70
5196;DHT22;2617;51.006;12.436;2023-06-14T10:01:48;20.30;85.00
5196;DHT22;2617;51.006;12.436;2023-06-14T10:06:51;19.90;86.70
5196;DHT22;2617;51.006;12.436;2023-06-14T10:11:54;19.90;86.70
5196;DHT22;2617;51.006;12.436;2023-06-14T10:17:04;20.60;84.00
5196;DHT22;2617;51.006;12.436;2023-06-14T10:22:09;20.50;83.80
5196;DHT22;2617;51.006;12.436;2023-06-14T10:27:12;21.30;80.00
5196;DHT22;2617;51.006;12.436;2023-06-14T10:32:15;21.40;78.30
5196;DHT22;2617;51.006;12.436;2023-06-14T10:37:17;21.10;78.50
5196;DHT22;2617;51.006;12.436;2023-06-14T10:42:21;21.10;81.20
5196;DHT22;2617;51.006;12.436;2023-06-14T10:47:27;20.80;81.80
5196;DHT22;2617;51.006;12.436;2023-06-14T10:52:31;20.70;81.60
5196;DHT22;2617;51.006;12.436;2023-06-14T10:57:32;20.00;83.60
5196;DHT22;2617;51.006;12.436;2023-06-14T11:08:18;20.50;80.30
5196;DHT22;2617;51.006;12.436;2023-06-14T11:13:24;20.60;77.60
5196;DHT22;2617;51.006;12.436;2023-06-14T11:18:28;20.60;78.00
5196;DHT22;2617;51.006;12.436;2023-06-14T11:23:30;20.60;77.90
5196;DHT22;2617;51.006;12.436;2023-06-14T11:28:36;20.80;78.20
5196;DHT22;2617;51.006;12.436;2023-06-14T11:33:40;21.20;74.50
5196;DHT22;2617;51.006;12.436;2023-06-14T11:38:42;21.20;74.50
5196;DHT22;2617;51.006;12.436;2023-06-14T11:43:44;21.50;71.30
5196;DHT22;2617;51.006;12.436;2023-06-14T11:48:47;21.90;69.60
5196;DHT22;2617;51.006;12.436;2023-06-14T11:53:49;21.70;71.40
5196;DHT22;2617;51.006;12.436;2023-06-14T11:58:52;21.90;72.70
5196;DHT22;2617;51.006;12.436;2023-06-14T12:03:55;22.70;70.00
5196;DHT22;2617;51.006;12.436;2023-06-14T12:08:57;21.60;74.50
5196;DHT22;2617;51.006;12.436;2023-06-14T12:14:00;20.90;77.30
5196;DHT22;2617;51.006;12.436;2023-06-14T12:19:12;21.40;70.70
5196;DHT22;2617;51.006;12.436;2023-06-14T12:24:15;22.70;69.80
5196;DHT22;2617;51.006;12.436;2023-06-14T12:29:18;22.60;69.70
5196;DHT22;2617;51.006;12.436;2023-06-14T12:34:20;22.80;69.70
5196;DHT22;2617;51.006;12.436;2023-06-14T12:39:23;22.10;71.00
5196;DHT22;2617;51.006;12.436;2023-06-14T12:44:26;21.70;75.20
5196;DHT22;2617;51.006;12.436;2023-06-14T12:49:28;21.70;75.20
5196;DHT22;2617;51.006;12.436;2023-06-14T12:54:31;21.10;76.00
5196;DHT22;2617;51.006;12.436;2023-06-14T12:59:33;21.10;74.80
5196;DHT22;2617;51.006;12.436;2023-06-14T13:04:36;21.80;72.50
5196;DHT22;2617;51.006;12.436;2023-06-14T13:09:39;21.70;74.70
5196;DHT22;2617;51.006;12.436;2023-06-14T13:14:41;21.70;75.50
5196;DHT22;2617;51.006;12.436;2023-06-14T13:19:44;21.90;74.10
5196;DHT22;2617;51.006;12.436;2023-06-14T13:24:46;21.80;74.60
5196;DHT22;2617;51.006;12.436;2023-06-14T13:29:48;22.10;72.10
5196;DHT22;2617;51.006;12.436;2023-06-14T13:34:51;22.10;74.60
5196;DHT22;2617;51.006;12.436;2023-06-14T13:39:54;22.20;73.50
5196;DHT22;2617;51.006;12.436;2023-06-14T13:44:57;22.20;73.40
5196;DHT22;2617;51.006;12.436;2023-06-14T13:50:00;22.20;74.20
5196;DHT22;2617;51.006;12.436;2023-06-14T13:55:03;22.10;74.10
5196;DHT22;2617;51.006;12.436;2023-06-14T14:00:06;21.70;75.20
5196;DHT22;2617;51.006;12.436;2023-06-14T14:05:10;21.30;77.60
5196;DHT22;2617;51.006;12.436;2023-06-14T14:10:12;21.30;77.60
5196;DHT22;2617;51.006;12.436;2023-06-14T14:15:15;21.40;79.70
5196;DHT22;2617;51.006;12.436;2023-06-14T14:20:17;21.20;82.40
5196;DHT22;2617;51.006;12.436;2023-06-14T14:25:19;21.20;81.80
5196;DHT22;2617;51.006;12.436;2023-06-14T14:30:22;20.70;83.10
5196;DHT22;2617;51.006;12.436;2023-06-14T14:35:24;20.70;84.30
5196;DHT22;2617;51.006;12.436;2023-06-14T14:40:27;20.70;84.50
5196;DHT22;2617;51.006;12.436;2023-06-14T14:45:29;20.60;85.70
5196;DHT22;2617;51.006;12.436;2023-06-14T14:50:32;20.90;84.90
5196;DHT22;2617;51.006;12.436;2023-06-14T14:55:34;20.90;85.20
5196;DHT22;2617;51.006;12.436;2023-06-14T15:00:37;21.00;87.60
5196;DHT22;2617;51.006;12.436;2023-06-14T15:05:39;21.00;87.70
5196;DHT22;2617;51.006;12.436;2023-06-14T15:10:42;21.20;85.10
5196;DHT22;2617;51.006;12.436;2023-06-14T15:15:45;21.20;84.40
5196;DHT22;2617;51.006;12.436;2023-06-14T15:20:47;21.40;81.50
5196;DHT22;2617;51.006;12.436;2023-06-14T15:25:49;20.90;85.50
5196;DHT22;2617;51.006;12.436;2023-06-14T15:30:52;21.00;84.40
5196;DHT22;2617;51.006;12.436;2023-06-14T15:35:55;20.70;85.50
5196;DHT22;2617;51.006;12.436;2023-06-14T15:40:58;20.50;90.00
5196;DHT22;2617;51.006;12.436;2023-06-14T15:46:00;20.60;89.50
5196;DHT22;2617;51.006;12.436;2023-06-14T15:51:03;20.90;89.30
5196;DHT22;2617;51.006;12.436;2023-06-14T15:56:05;21.00;87.70
5196;DHT22;2617;51.006;12.436;2023-06-14T16:01:08;21.00;88.10
5196;DHT22;2617;51.006;12.436;2023-06-14T16:06:11;20.70;87.60
5196;DHT22;2617;51.006;12.436;2023-06-14T16:11:13;20.70;87.60
5196;DHT22;2617;51.006;12.436;2023-06-14T16:16:16;20.80;88.60
5196;DHT22;2617;51.006;12.436;2023-06-14T16:21:18;20.90;87.10
5196;DHT22;2617;51.006;12.436;2023-06-14T16:26:20;20.80;86.60
5196;DHT22;2617;51.006;12.436;2023-06-14T16:31:23;21.00;87.00
5196;DHT22;2617;51.006;12.436;2023-06-14T16:36:27;20.70;88.10
5196;DHT22;2617;51.006;12.436;2023-06-14T16:41:30;20.70;87.30
5196;DHT22;2617;51.006;12.436;2023-06-14T16:46:33;20.90;84.80
5196;DHT22;2617;51.006;12.436;2023-06-14T16:51:35;20.90;84.70
5196;DHT22;2617;51.006;12.436;2023-06-14T16:56:38;20.80;85.00
5196;DHT22;2617;51.006;12.436;2023-06-14T17:01:40;20.70;84.90
5196;DHT22;2617;51.006;12.436;2023-06-14T17:06:43;20.60;84.20
5196;DHT22;2617;51.006;12.436;2023-06-14T17:11:45;20.70;84.00
5196;DHT22;2617;51.006;12.436;2023-06-14T17:16:48;20.40;87.80
5196;DHT22;2617;51.006;12.436;2023-06-14T17:21:51;20.30;86.90
5196;DHT22;2617;51.006;12.436;2023-06-14T17:26:54;20.00;90.00
5196;DHT22;2617;51.006;12.436;2023-06-14T17:31:57;20.00;90.00
5196;DHT22;2617;51.006;12.436;2023-06-14T17:37:00;19.80;90.50
5196;DHT22;2617;51.006;12.436;2023-06-14T17:42:02;19.70;91.50
5196;DHT22;2617;51.006;12.436;2023-06-14T17:47:05;19.50;92.40
5196;DHT22;2617;51.006;12.436;2023-06-14T17:52:08;19.30;92.90
5196;DHT22;2617;51.006;12.436;2023-06-14T17:57:10;19.10;93.40
5196;DHT22;2617;51.006;12.436;2023-06-14T18:02:13;19.20;93.70
5196;DHT22;2617;51.006;12.436;2023-06-14T18:07:15;19.30;93.60
5196;DHT22;2617;51.006;12.436;2023-06-14T18:12:17;19.10;94.00
5196;DHT22;2617;51.006;12.436;2023-06-14T18:17:21;18.80;95.10
5196;DHT22;2617;51.006;12.436;2023-06-14T18:22:23;18.80;95.10
5196;DHT22;2617;51.006;12.436;2023-06-14T18:27:25;18.70;95.60
5196;DHT22;2617;51.006;12.436;2023-06-14T18:32:28;18.60;96.20
5196;DHT22;2617;51.006;12.436;2023-06-14T18:37:32;18.30;97.40
5196;DHT22;2617;51.006;12.436;2023-06-14T18:42:34;18.20;97.40
5196;DHT22;2617;51.006;12.436;2023-06-14T18:47:37;18.10;98.60
5196;DHT22;2617;51.006;12.436;2023-06-14T18:52:40;18.00;98.50
5196;DHT22;2617;51.006;12.436;2023-06-14T18:57:42;17.90;99.30
5196;DHT22;2617;51.006;12.436;2023-06-14T19:02:45;17.60;99.90
5196;DHT22;2617;51.006;12.436;2023-06-14T19:07:48;17.60;99.90
5196;DHT22;2617;51.006;12.436;2023-06-14T19:12:50;17.50;99.90
5196;DHT22;2617;51.006;12.436;2023-06-14T19:17:55;17.40;99.90
5196;DHT22;2617;51.006;12.436;2023-06-14T19:22:57;17.40;99.90
5196;DHT22;2617;51.006;12.436;2023-06-14T19:28:00;17.20;99.90
5196;DHT22;2617;51.006;12.436;2023-06-14T19:33:02;17.20;99.90
5196;DHT22;2617;51.006;12.436;2023-06-14T19:38:06;17.10;99.90
5196;DHT22;2617;51.006;12.436;2023-06-14T19:43:09;17.00;99.90
5196;DHT22;2617;51.006;12.436;2023-06-14T19:48:11;16.90;99.90
5196;DHT22;2617;51.006;12.436;2023-06-14T19:53:14;16.90;99.90
5196;DHT22;2617;51.006;12.436;2023-06-14T19:58:16;16.80;99.90
5196;DHT22;2617;51.006;12.436;2023-06-14T20:03:19;16.70;99.90
5196;DHT22;2617;51.006;12.436;2023-06-14T20:08:21;16.50;99.90
5196;DHT22;2617;51.006;12.436;2023-06-14T20:13:23;16.30;99.90
5196;DHT22;2617;51.006;12.436;2023-06-14T20:18:26;16.20;99.90
5196;DHT22;2617;51.006;12.436;2023-06-14T20:23:29;16.00;99.90
5196;DHT22;2617;51.006;12.436;2023-06-14T20:28:32;15.60;99.90
5196;DHT22;2617;51.006;12.436;2023-06-14T20:33:34;15.60;99.90
5196;DHT22;2617;51.006;12.436;2023-06-14T20:38:37;15.50;99.90
5196;DHT22;2617;51.006;12.436;2023-06-14T20:43:39;15.30;99.90
5196;DHT22;2617;51.006;12.436;2023-06-14T20:48:42;15.20;99.90
5196;DHT22;2617;51.006;12.436;2023-06-14T20:53:44;15.00;99.90
5196;DHT22;2617;51.006;12.436;2023-06-14T20:58:46;14.90;99.90
5196;DHT22;2617;51.006;12.436;2023-06-14T21:03:49;14.90;99.90
5196;DHT22;2617;51.006;12.436;2023-06-14T21:08:51;14.70;99.90
5196;DHT22;2617;51.006;12.436;2023-06-14T21:13:54;14.60;99.90
5196;DHT22;2617;51.006;12.436;2023-06-14T21:18:56;14.50;99.90
5196;DHT22;2617;51.006;12.436;2023-06-14T21:23:58;14.40;99.90
5196;DHT22;2617;51.006;12.436;2023-06-14T21:29:02;14.30;99.90
5196;DHT22;2617;51.006;12.436;2023-06-14T21:34:04;14.20;99.90
5196;DHT22;2617;51.006;12.436;2023-06-14T21:39:06;14.20;99.90
5196;DHT22;2617;51.006;12.436;2023-06-14T21:44:09;14.10;99.90
5196;DHT22;2617;51.006;12.436;2023-06-14T21:49:11;14.00;99.90
5196;DHT22;2617;51.006;12.436;2023-06-14T21:54:14;13.90;99.90
5196;DHT22;2617;51.006;12.436;2023-06-14T21:59:16;13.60;99.90
5196;DHT22;2617;51.006;12.436;2023-06-14T22:04:19;13.50;99.90
5196;DHT22;2617;51.006;12.436;2023-06-14T22:09:21;13.30;99.90
5196;DHT22;2617;51.006;12.436;2023-06-14T22:14:23;13.20;99.90
5196;DHT22;2617;51.006;12.436;2023-06-14T22:19:26;13.20;99.90
5196;DHT22;2617;51.006;12.436;2023-06-14T22:24:28;13.10;99.90
5196;DHT22;2617;51.006;12.436;2023-06-14T22:29:32;13.20;99.90
5196;DHT22;2617;51.006;12.436;2023-06-14T22:34:34;13.10;99.90
5196;DHT22;2617;51.006;12.436;2023-06-14T22:39:37;13.00;99.90
5196;DHT22;2617;51.006;12.436;2023-06-14T22:44:39;12.90;99.90
5196;DHT22;2617;51.006;12.436;2023-06-14T22:49:41;12.70;99.90
5196;DHT22;2617;51.006;12.436;2023-06-14T22:54:44;12.60;99.90
5196;DHT22;2617;51.006;12.436;2023-06-14T22:59:46;12.50;99.90
5196;DHT22;2617;51.006;12.436;2023-06-14T23:04:49;12.40;99.90
5196;DHT22;2617;51.006;12.436;2023-06-14T23:09:52;12.10;99.90
5196;DHT22;2617;51.006;12.436;2023-06-14T23:14:56;12.00;99.90
5196;DHT22;2617;51.006;12.436;2023-06-14T23:19:59;12.00;99.90
5196;DHT22;2617;51.006;12.436;2023-06-14T23:25:09;12.00;99.90
5196;DHT22;2617;51.006;12.436;2023-06-14T23:30:11;12.00;99.90
5196;DHT22;2617;51.006;12.436;2023-06-14T23:35:14;11.90;99.90
5196;DHT22;2617;51.006;12.436;2023-06-14T23:40:16;11.80;99.90
5196;DHT22;2617;51.006;12.436;2023-06-14T23:45:19;11.70;99.90
5196;DHT22;2617;51.006;12.436;2023-06-14T23:50:21;11.60;99.90
5196;DHT22;2617;51.006;12.436;2023-06-14T23:55:24;11.50;99.90
